Station Historical Data
Daily Summary for March 24, 2012 Units:  English    Metric   Both
« Previous Day
Next Day »
Daily Weekly Monthly Yearly Custom
  High: Low: Average:
Temperature: 64.9 °F 50.2 °F 56.7 °F
Dew Point: 54.8 °F 45.6 °F 48.9 °F
Humidity: 94% 57% 76%
Wind Speed: 15.0mph 0.0mph 3.6mph
Wind Gust: 24.0mph - -
Wind- - WSW
Pressure: 29.92 in 29.82 in -
Precipitation: 0.24 in    
Historical Graphs
 
 
Tabular Data for March 24, 2012
Time Temperature Dew Point Pressure Wind Wind Speed Wind Gust Humidity Rainfall Rate (Hourly) Conditions
00:00 59.1 °F 46.5 °F 29.86 in WSW 4.0 mph 6.0 mph 63% 0.00 in
00:06 58.9 °F 46.3 °F 29.87 in SW 4.0 mph 5.0 mph 63% 0.00 in
00:11 58.7 °F 46.6 °F 29.87 in West 3.0 mph 5.0 mph 64% 0.00 in
00:16 58.5 °F 46.4 °F 29.86 in West 2.0 mph 3.0 mph 64% 0.00 in
00:21 58.5 °F 46.8 °F 29.86 in West 3.0 mph 7.0 mph 65% 0.00 in
00:26 58.3 °F 47.0 °F 29.86 in West 2.0 mph 3.0 mph 66% 0.00 in
00:31 58.2 °F 46.9 °F 29.86 in WSW 1.0 mph 4.0 mph 66% 0.00 in
00:36 58.0 °F 46.7 °F 29.86 in WSW 4.0 mph 5.0 mph 66% 0.00 in
00:41 57.8 °F 46.9 °F 29.86 in WSW 1.0 mph 3.0 mph 67% 0.00 in
00:46 57.4 °F 46.9 °F 29.87 in West 2.0 mph 2.0 mph 68% 0.00 in
00:51 57.3 °F 46.8 °F 29.86 in West 2.0 mph 2.0 mph 68% 0.00 in
00:56 57.1 °F 46.7 °F 29.86 in West 1.0 mph 2.0 mph 68% 0.00 in
01:01 57.1 °F 47.0 °F 29.86 in SW 2.0 mph 3.0 mph 69% 0.00 in
01:06 56.9 °F 46.8 °F 29.86 in WSW 1.0 mph 3.0 mph 69% 0.00 in
01:11 56.7 °F 46.7 °F 29.86 in WSW 1.0 mph 3.0 mph 69% 0.00 in
01:16 56.6 °F 46.6 °F 29.86 in WSW 2.0 mph 2.0 mph 69% 0.00 in
01:21 56.6 °F 46.9 °F 29.86 in WSW 1.0 mph 4.0 mph 70% 0.00 in
01:26 56.3 °F 46.7 °F 29.86 in SW 1.0 mph 2.0 mph 70% 0.00 in
01:32 55.8 °F 46.5 °F 29.86 in SW 1.0 mph 2.0 mph 71% 0.00 in
01:37 55.4 °F 46.5 °F 29.86 in SW 1.0 mph 1.0 mph 72% 0.00 in
01:42 55.2 °F 46.7 °F 29.86 in SSW 2.0 mph 2.0 mph 73% 0.00 in
01:47 55.0 °F 46.5 °F 29.86 in South 1.0 mph 1.0 mph 73% 0.00 in
01:52 54.7 °F 46.2 °F 29.86 in Calm   1.0 mph 73% 0.00 in
01:57 54.5 °F 46.4 °F 29.86 in Calm   1.0 mph 74% 0.00 in
02:02 54.3 °F 46.2 °F 29.86 in Calm   1.0 mph 74% 0.00 in
02:07 54.3 °F 46.6 °F 29.86 in SSW 1.0 mph 1.0 mph 75% 0.00 in
02:12 54.2 °F 46.5 °F 29.86 in Calm   1.0 mph 75% 0.00 in
02:17 54.0 °F 46.3 °F 29.86 in SSW 1.0 mph 1.0 mph 75% 0.00 in
02:22 53.9 °F 46.2 °F 29.85 in SSW 1.0 mph 1.0 mph 75% 0.00 in
02:27 54.1 °F 46.4 °F 29.86 in SSE 1.0 mph 1.0 mph 75% 0.00 in
02:32 54.1 °F 46.4 °F 29.86 in Calm     75% 0.00 in
02:37 54.1 °F 46.4 °F 29.85 in Calm     75% 0.00 in
02:42 54.0 °F 46.3 °F 29.85 in Calm     75% 0.00 in
02:47 53.9 °F 46.5 °F 29.85 in Calm   1.0 mph 76% 0.00 in
02:52 53.7 °F 46.3 °F 29.85 in Calm   1.0 mph 76% 0.00 in
02:57 53.4 °F 46.4 °F 29.85 in South 1.0 mph 1.0 mph 77% 0.00 in
03:02 53.2 °F 46.2 °F 29.85 in Calm   1.0 mph 77% 0.00 in
03:07 52.8 °F 46.1 °F 29.85 in Calm   1.0 mph 78% 0.00 in
03:12 52.7 °F 46.4 °F 29.85 in Calm   1.0 mph 79% 0.00 in
03:17 52.6 °F 46.3 °F 29.85 in Calm     79% 0.00 in
03:22 52.4 °F 46.1 °F 29.85 in Calm     79% 0.00 in
03:27 52.1 °F 46.1 °F 29.85 in Calm     80% 0.00 in
03:32 51.8 °F 46.2 °F 29.85 in Calm     81% 0.00 in
03:37 51.6 °F 46.0 °F 29.85 in Calm     81% 0.00 in
03:42 51.2 °F 45.6 °F 29.85 in Calm     81% 0.00 in
03:47 50.6 °F 45.6 °F 29.85 in Calm     83% 0.00 in
03:52 50.2 °F 45.6 °F 29.85 in Calm     84% 0.00 in
03:57 50.3 °F 46.0 °F 29.85 in SSE 1.0 mph 1.0 mph 85% 0.00 in
04:02 50.6 °F 46.3 °F 29.85 in SSE 1.0 mph 1.0 mph 85% 0.00 in
04:07 51.0 °F 46.3 °F 29.85 in South 1.0 mph 1.0 mph 84% 0.00 in
04:12 51.4 °F 46.4 °F 29.85 in Calm   1.0 mph 83% 0.00 in
04:17 51.6 °F 46.3 °F 29.85 in SSE 2.0 mph 2.0 mph 82% 0.00 in
04:22 51.9 °F 46.6 °F 29.85 in Calm   1.0 mph 82% 0.00 in
04:27 52.2 °F 46.5 °F 29.85 in SW 1.0 mph 2.0 mph 81% 0.00 in
04:33 52.5 °F 46.5 °F 29.85 in WSW 1.0 mph 2.0 mph 80% 0.00 in
04:38 52.7 °F 46.7 °F 29.85 in Calm   1.0 mph 80% 0.00 in
04:43 52.5 °F 46.5 °F 29.85 in WSW 1.0 mph 1.0 mph 80% 0.00 in
04:48 52.4 °F 46.4 °F 29.85 in Calm   1.0 mph 80% 0.00 in
04:53 52.4 °F 46.4 °F 29.86 in SSW 1.0 mph 1.0 mph 80% 0.00 in
04:58 52.5 °F 46.5 °F 29.86 in Calm   1.0 mph 80% 0.00 in
05:03 52.5 °F 46.5 °F 29.85 in South 1.0 mph 2.0 mph 80% 0.00 in
05:08 52.5 °F 46.8 °F 29.86 in SSE 2.0 mph 2.0 mph 81% 0.00 in
05:13 52.5 °F 46.8 °F 29.86 in SSE 2.0 mph 2.0 mph 81% 0.00 in
05:18 52.3 °F 47.0 °F 29.86 in SE 2.0 mph 2.0 mph 82% 0.00 in
05:23 52.2 °F 47.2 °F 29.86 in SE 1.0 mph 2.0 mph 83% 0.00 in
05:28 52.3 °F 47.0 °F 29.86 in SE 1.0 mph 1.0 mph 82% 0.00 in
05:33 52.5 °F 47.2 °F 29.86 in SE 1.0 mph 1.0 mph 82% 0.00 in
05:38 52.7 °F 47.4 °F 29.86 in SE 1.0 mph 1.0 mph 82% 0.00 in
05:43 52.7 °F 47.4 °F 29.86 in SSE 2.0 mph 2.0 mph 82% 0.00 in
05:48 52.7 °F 47.0 °F 29.85 in SSE 1.0 mph 2.0 mph 81% 0.00 in
05:53 52.7 °F 47.4 °F 29.86 in SSW 1.0 mph 2.0 mph 82% 0.00 in
05:58 52.6 °F 47.6 °F 29.86 in Calm   1.0 mph 83% 0.00 in
06:03 52.5 °F 47.8 °F 29.86 in WSW 1.0 mph 1.0 mph 84% 0.00 in
06:08 52.6 °F 48.2 °F 29.86 in WSW 2.0 mph 2.0 mph 85% 0.00 in
06:13 52.7 °F 48.3 °F 29.86 in WSW 1.0 mph 1.0 mph 85% 0.00 in
06:18 52.7 °F 48.0 °F 29.86 in SW 2.0 mph 2.0 mph 84% 0.00 in
06:23 52.7 °F 48.0 °F 29.87 in WSW 2.0 mph 2.0 mph 84% 0.00 in
06:28 52.6 °F 47.9 °F 29.87 in WSW 1.0 mph 2.0 mph 84% 0.00 in
06:33 52.5 °F 47.8 °F 29.87 in WSW 2.0 mph 2.0 mph 84% 0.00 in
06:38 52.4 °F 48.0 °F 29.87 in Calm   1.0 mph 85% 0.00 in
06:43 52.3 °F 47.9 °F 29.87 in West 1.0 mph 3.0 mph 85% 0.00 in
06:48 52.2 °F 47.8 °F 29.87 in Calm   2.0 mph 85% 0.00 in
06:53 52.1 °F 47.7 °F 29.87 in Calm   1.0 mph 85% 0.00 in
06:58 52.1 °F 47.7 °F 29.87 in Calm   1.0 mph 85% 0.00 in
07:03 52.1 °F 47.7 °F 29.87 in SW 1.0 mph 1.0 mph 85% 0.00 in
07:08 52.0 °F 47.6 °F 29.87 in SSW 1.0 mph 1.0 mph 85% 0.00 in
07:13 51.9 °F 47.8 °F 29.87 in SW 1.0 mph 1.0 mph 86% 0.00 in
07:19 51.8 °F 47.8 °F 29.87 in SW 1.0 mph 1.0 mph 86% 0.00 in
07:24 51.8 °F 47.8 °F 29.87 in SW 1.0 mph 1.0 mph 86% 0.00 in
07:29 51.8 °F 47.8 °F 29.87 in Calm   1.0 mph 86% 0.00 in
07:34 51.7 °F 47.7 °F 29.87 in Calm   1.0 mph 86% 0.00 in
07:39 51.6 °F 47.6 °F 29.87 in Calm   1.0 mph 86% 0.00 in
07:44 51.4 °F 47.7 °F 29.87 in Calm     87% 0.00 in
07:49 51.1 °F 47.4 °F 29.87 in Calm     87% 0.00 in
07:54 50.9 °F 47.2 °F 29.87 in Calm     87% 0.00 in
07:59 50.7 °F 47.3 °F 29.87 in Calm     88% 0.00 in
08:04 50.6 °F 47.2 °F 29.87 in SW 1.0 mph 1.0 mph 88% 0.00 in
08:09 50.5 °F 47.1 °F 29.87 in SW 1.0 mph 1.0 mph 88% 0.00 in
08:14 50.4 °F 47.0 °F 29.87 in Calm   1.0 mph 88% 0.00 in
08:19 50.4 °F 47.3 °F 29.88 in SW 1.0 mph 1.0 mph 89% 0.00 in
08:24 50.5 °F 47.4 °F 29.88 in Calm     89% 0.00 in
08:29 50.8 °F 47.7 °F 29.89 in Calm   1.0 mph 89% 0.00 in
08:34 51.0 °F 47.9 °F 29.89 in Calm   1.0 mph 89% 0.00 in
08:39 51.2 °F 48.1 °F 29.89 in WSW 1.0 mph 1.0 mph 89% 0.00 in
08:44 51.3 °F 48.2 °F 29.89 in WSW 1.0 mph 2.0 mph 89% 0.00 in
08:49 51.5 °F 48.1 °F 29.89 in West 1.0 mph 3.0 mph 88% 0.00 in
08:54 51.6 °F 48.2 °F 29.90 in WSW 1.0 mph 2.0 mph 88% 0.00 in
08:59 51.6 °F 48.2 °F 29.90 in WSW 2.0 mph 2.0 mph 88% 0.00 in
09:04 51.8 °F 48.4 °F 29.90 in WSW 1.0 mph 3.0 mph 88% 0.00 in
09:09 52.2 °F 48.8 °F 29.90 in SW 2.0 mph 3.0 mph 88% 0.00 in
09:14 52.7 °F 48.6 °F 29.90 in West 4.0 mph 5.0 mph 86% 0.00 in
09:19 52.9 °F 48.5 °F 29.91 in WSW 2.0 mph 4.0 mph 85% 0.00 in
09:24 53.1 °F 48.4 °F 29.91 in West 3.0 mph 5.0 mph 84% 0.00 in
09:29 53.1 °F 48.4 °F 29.91 in WNW 4.0 mph 5.0 mph 84% 0.00 in
09:34 53.3 °F 48.9 °F 29.91 in West 1.0 mph 5.0 mph 85% 0.00 in
09:39 53.7 °F 49.0 °F 29.91 in WNW 4.0 mph 5.0 mph 84% 0.00 in
09:44 54.4 °F 49.0 °F 29.92 in WSW 3.0 mph 6.0 mph 82% 0.00 in
09:49 55.1 °F 49.4 °F 29.91 in WSW 3.0 mph 5.0 mph 81% 0.00 in
09:54 55.5 °F 49.4 °F 29.91 in South 3.0 mph 10.0 mph 80% 0.00 in
10:00 55.6 °F 48.9 °F 29.91 in SW 4.0 mph 9.0 mph 78% 0.00 in
10:05 55.5 °F 49.4 °F 29.90 in SW 4.0 mph 8.0 mph 80% 0.00 in
10:10 55.8 °F 49.4 °F 29.90 in WSW 4.0 mph 6.0 mph 79% 0.00 in
10:15 56.0 °F 49.2 °F 29.90 in WNW 5.0 mph 7.0 mph 78% 0.00 in
10:20 56.5 °F 49.7 °F 29.89 in SW 7.0 mph 7.0 mph 78% 0.00 in
10:25 56.7 °F 48.9 °F 29.90 in WSW 4.0 mph 10.0 mph 75% 0.00 in
10:30 56.8 °F 49.0 °F 29.89 in SW 5.0 mph 11.0 mph 75% 0.00 in
10:35 57.6 °F 49.4 °F 29.90 in WSW 9.0 mph 9.0 mph 74% 0.00 in
10:40 57.5 °F 49.3 °F 29.90 in West 10.0 mph 11.0 mph 74% 0.00 in
10:45 57.0 °F 48.8 °F 29.90 in WNW 5.0 mph 11.0 mph 74% 0.00 in
10:50 57.0 °F 49.5 °F 29.89 in West 3.0 mph 7.0 mph 76% 0.00 in
10:55 57.8 °F 49.9 °F 29.89 in SW 6.0 mph 9.0 mph 75% 0.00 in
11:00 58.4 °F 50.2 °F 29.89 in West 6.0 mph 9.0 mph 74% 0.00 in
11:05 58.5 °F 49.9 °F 29.89 in West 4.0 mph 9.0 mph 73% 0.00 in
11:10 58.7 °F 49.3 °F 29.89 in SSW 5.0 mph 11.0 mph 71% 0.00 in
11:15 59.0 °F 50.4 °F 29.89 in SSW 7.0 mph 10.0 mph 73% 0.00 in
11:20 59.6 °F 51.0 °F 29.89 in SSW 4.0 mph 8.0 mph 73% 0.00 in
11:25 60.1 °F 51.8 °F 29.88 in SW 11.0 mph 13.0 mph 74% 0.00 in
11:30 60.1 °F 49.9 °F 29.88 in SW 3.0 mph 12.0 mph 69% 0.00 in
11:35 60.5 °F 49.9 °F 29.88 in WSW 14.0 mph 14.0 mph 68% 0.00 in
11:40 60.1 °F 49.5 °F 29.88 in SW 6.0 mph 13.0 mph 68% 0.00 in
11:41 60.1 °F 49.9 °F 29.88 in WSW 8.0 mph 13.0 mph 69% 0.00 in
11:46 60.0 °F 49.8 °F 29.87 in WSW 6.0 mph 10.0 mph 69% 0.00 in
11:51 60.2 °F 49.6 °F 29.87 in WSW 4.0 mph 11.0 mph 68% 0.00 in
11:56 60.4 °F 50.2 °F 29.87 in SSW 7.0 mph 11.0 mph 69% 0.00 in
12:01 61.1 °F 50.5 °F 29.87 in SW 5.0 mph 9.0 mph 68% 0.00 in
12:06 60.9 °F 48.7 °F 29.88 in WSW 5.0 mph 14.0 mph 64% 0.00 in
12:11 60.9 °F 49.5 °F 29.87 in SSW 11.0 mph 11.0 mph 66% 0.00 in
12:16 60.7 °F 49.3 °F 29.87 in WSW 9.0 mph 14.0 mph 66% 0.00 in
12:21 61.1 °F 50.1 °F 29.87 in WSW 5.0 mph 15.0 mph 67% 0.00 in
12:26 61.1 °F 49.7 °F 29.87 in WSW 6.0 mph 9.0 mph 66% 0.00 in
12:31 61.4 °F 50.4 °F 29.86 in West 4.0 mph 7.0 mph 67% 0.00 in
12:36 62.7 °F 50.8 °F 29.87 in WSW 10.0 mph 14.0 mph 65% 0.00 in
12:41 62.5 °F 49.8 °F 29.87 in West 8.0 mph 11.0 mph 63% 0.00 in
12:46 61.8 °F 48.7 °F 29.87 in WSW 6.0 mph 13.0 mph 62% 0.00 in
12:51 61.6 °F 48.5 °F 29.86 in West 11.0 mph 15.0 mph 62% 0.00 in
12:56 61.8 °F 49.9 °F 29.86 in WSW 5.0 mph 11.0 mph 65% 0.00 in
13:01 62.3 °F 49.1 °F 29.86 in West 6.0 mph 13.0 mph 62% 0.00 in
13:06 62.4 °F 49.2 °F 29.86 in WSW 4.0 mph 10.0 mph 62% 0.00 in
13:11 62.5 °F 48.9 °F 29.85 in West 5.0 mph 8.0 mph 61% 0.00 in
13:16 62.8 °F 50.0 °F 29.85 in WSW 10.0 mph 12.0 mph 63% 0.00 in
13:21 63.5 °F 50.3 °F 29.85 in WSW 4.0 mph 9.0 mph 62% 0.00 in
13:26 63.6 °F 49.5 °F 29.85 in West 10.0 mph 15.0 mph 60% 0.00 in
13:32 63.4 °F 48.8 °F 29.85 in WSW 9.0 mph 16.0 mph 59% 0.00 in
13:37 63.3 °F 48.3 °F 29.85 in WNW 8.0 mph 13.0 mph 58% 0.00 in
13:42 63.8 °F 50.1 °F 29.84 in West 11.0 mph 12.0 mph 61% 0.00 in
13:47 64.5 °F 49.4 °F 29.84 in West 6.0 mph 10.0 mph 58% 0.00 in
13:52 64.6 °F 49.0 °F 29.84 in West 7.0 mph 19.0 mph 57% 0.00 in
13:57 64.9 °F 49.3 °F 29.84 in West 6.0 mph 15.0 mph 57% 0.00 in
14:02 64.7 °F 49.1 °F 29.83 in WSW 9.0 mph 13.0 mph 57% 0.00 in
14:07 64.2 °F 49.1 °F 29.83 in WSW 6.0 mph 13.0 mph 58% 0.00 in
14:12 63.6 °F 49.0 °F 29.83 in SW 12.0 mph 13.0 mph 59% 0.00 in
14:17 63.1 °F 49.0 °F 29.83 in West 9.0 mph 12.0 mph 60% 0.00 in
14:22 63.2 °F 49.1 °F 29.83 in NW 4.0 mph 15.0 mph 60% 0.00 in
14:27 63.5 °F 49.4 °F 29.83 in WSW 9.0 mph 9.0 mph 60% 0.00 in
14:32 63.7 °F 50.0 °F 29.83 in WNW 9.0 mph 11.0 mph 61% 0.00 in
14:37 63.3 °F 49.6 °F 29.83 in West 6.0 mph 11.0 mph 61% 0.00 in
14:42 62.9 °F 49.3 °F 29.83 in West 5.0 mph 13.0 mph 61% 0.00 in
14:47 62.5 °F 48.9 °F 29.84 in WNW 12.0 mph 14.0 mph 61% 0.00 in
14:52 61.4 °F 49.5 °F 29.83 in West 9.0 mph 16.0 mph 65% 0.00 in
14:57 61.4 °F 50.4 °F 29.83 in West 9.0 mph 12.0 mph 67% 0.00 in
15:02 61.9 °F 51.2 °F 29.83 in SW 10.0 mph 12.0 mph 68% 0.00 in
15:07 62.5 °F 52.6 °F 29.83 in WSW 11.0 mph 14.0 mph 70% 0.00 in
15:12 63.4 °F 53.1 °F 29.83 in SW 10.0 mph 14.0 mph 69% 0.00 in
15:17 63.1 °F 52.8 °F 29.82 in WSW 7.0 mph 16.0 mph 69% 0.00 in
15:22 63.3 °F 51.3 °F 29.82 in WSW 11.0 mph 14.0 mph 65% 0.00 in
15:27 64.0 °F 51.2 °F 29.82 in NW 11.0 mph 16.0 mph 63% 0.00 in
15:32 64.5 °F 52.5 °F 29.83 in WNW 6.0 mph 13.0 mph 65% 0.00 in
15:37 64.7 °F 51.4 °F 29.82 in WNW 11.0 mph 14.0 mph 62% 0.00 in
15:42 64.2 °F 50.9 °F 29.82 in WNW 15.0 mph 15.0 mph 62% 0.00 in
15:47 64.0 °F 51.6 °F 29.82 in WNW 6.0 mph 9.0 mph 64% 0.00 in
15:52 63.3 °F 50.9 °F 29.82 in WNW 6.0 mph 11.0 mph 64% 0.00 in
15:57 61.8 °F 49.5 °F 29.82 in WNW 14.0 mph 19.0 mph 64% 0.00 in
16:02 57.4 °F 49.5 °F 29.84 in NW 13.0 mph 24.0 mph 75% 1.30 in
16:07 53.1 °F 48.7 °F 29.83 in NW 8.0 mph 14.0 mph 85% 0.39 in
16:12 52.3 °F 48.9 °F 29.83 in WNW 9.0 mph 12.0 mph 88% 0.51 in
16:17 52.1 °F 49.3 °F 29.84 in WNW 8.0 mph 10.0 mph 90% 0.27 in
16:23 52.1 °F 49.6 °F 29.84 in WNW 2.0 mph 11.0 mph 91% 0.42 in
16:28 52.0 °F 49.8 °F 29.83 in NW 5.0 mph 5.0 mph 92% 0.18 in
16:33 52.2 °F 50.0 °F 29.83 in SW 1.0 mph 6.0 mph 92% 0.06 in
16:38 52.4 °F 50.4 °F 29.83 in West 2.0 mph 4.0 mph 93% 0.04 in
16:43 52.5 °F 50.5 °F 29.83 in WNW 4.0 mph 4.0 mph 93% 0.00 in
16:48 53.6 °F 51.9 °F 29.83 in WNW 3.0 mph 3.0 mph 94% 0.00 in
16:53 54.4 °F 52.4 °F 29.83 in WNW 4.0 mph 4.0 mph 93% 0.00 in
16:58 55.3 °F 53.3 °F 29.83 in NW 4.0 mph 7.0 mph 93% 0.00 in
17:03 56.0 °F 53.7 °F 29.83 in WNW 7.0 mph 7.0 mph 92% 0.00 in
17:08 56.6 °F 53.4 °F 29.83 in WNW 8.0 mph 8.0 mph 89% 0.00 in
17:13 57.4 °F 54.2 °F 29.83 in WNW 3.0 mph 4.0 mph 89% 0.00 in
17:19 58.0 °F 54.2 °F 29.83 in WNW 4.0 mph 5.0 mph 87% 0.00 in
17:24 58.4 °F 53.9 °F 29.83 in NW 5.0 mph 7.0 mph 85% 0.00 in
17:29 59.0 °F 53.5 °F 29.83 in WNW 9.0 mph 12.0 mph 82% 0.00 in
17:34 59.9 °F 54.4 °F 29.83 in WNW 11.0 mph 11.0 mph 82% 0.00 in
17:39 60.4 °F 54.2 °F 29.83 in WNW 10.0 mph 12.0 mph 80% 0.00 in
17:44 60.8 °F 54.3 °F 29.82 in NW 8.0 mph 14.0 mph 79% 0.00 in
17:49 61.3 °F 54.7 °F 29.83 in WSW 5.0 mph 10.0 mph 79% 0.00 in
17:54 61.8 °F 54.5 °F 29.83 in WSW 9.0 mph 11.0 mph 77% 0.00 in
17:59 62.1 °F 54.8 °F 29.83 in WNW 15.0 mph 15.0 mph 77% 0.00 in
18:04 62.2 °F 54.5 °F 29.83 in WNW 5.0 mph 9.0 mph 76% 0.00 in
18:09 62.6 °F 54.6 °F 29.83 in West 9.0 mph 10.0 mph 75% 0.00 in
18:14 63.1 °F 54.3 °F 29.83 in WNW 7.0 mph 13.0 mph 73% 0.00 in
18:19 63.4 °F 52.3 °F 29.83 in West 12.0 mph 15.0 mph 67% 0.00 in
18:24 63.4 °F 51.9 °F 29.83 in WNW 10.0 mph 18.0 mph 66% 0.00 in
18:29 63.4 °F 51.4 °F 29.83 in NW 14.0 mph 16.0 mph 65% 0.00 in
18:34 63.4 °F 51.4 °F 29.83 in West 6.0 mph 15.0 mph 65% 0.00 in
18:39 63.6 °F 51.6 °F 29.84 in WNW 8.0 mph 12.0 mph 65% 0.00 in
18:44 63.6 °F 50.8 °F 29.84 in WNW 8.0 mph 13.0 mph 63% 0.00 in
18:49 63.7 °F 50.9 °F 29.84 in NW 8.0 mph 14.0 mph 63% 0.00 in
18:54 63.7 °F 50.9 °F 29.84 in WNW 8.0 mph 14.0 mph 63% 0.00 in
18:59 63.8 °F 51.0 °F 29.83 in WNW 6.0 mph 11.0 mph 63% 0.00 in
19:04 63.9 °F 51.1 °F 29.84 in WNW 6.0 mph 9.0 mph 63% 0.00 in
19:09 63.9 °F 50.6 °F 29.84 in NW 11.0 mph 14.0 mph 62% 0.00 in
19:14 63.8 °F 51.0 °F 29.84 in NNW 5.0 mph 10.0 mph 63% 0.00 in
19:19 63.7 °F 50.9 °F 29.84 in NW 5.0 mph 11.0 mph 63% 0.00 in
19:24 63.7 °F 50.9 °F 29.84 in WNW 5.0 mph 7.0 mph 63% 0.00 in
19:30 63.7 °F 50.5 °F 29.84 in WNW 5.0 mph 11.0 mph 62% 0.00 in
19:35 63.5 °F 50.7 °F 29.85 in WNW 4.0 mph 9.0 mph 63% 0.00 in
19:40 63.2 °F 49.1 °F 29.85 in WNW 5.0 mph 11.0 mph 60% 0.00 in
19:41 63.2 °F 49.1 °F 29.85 in NW 11.0 mph 11.0 mph 60% 0.00 in
19:46 62.8 °F 48.7 °F 29.85 in NW 5.0 mph 12.0 mph 60% 0.00 in
19:51 62.2 °F 48.2 °F 29.86 in NW 6.0 mph 12.0 mph 60% 0.00 in
19:56 61.7 °F 48.6 °F 29.85 in NW 6.0 mph 9.0 mph 62% 0.00 in
20:01 61.3 °F 48.6 °F 29.85 in NW 5.0 mph 9.0 mph 63% 0.00 in
20:06 61.3 °F 48.6 °F 29.85 in NW 3.0 mph 8.0 mph 63% 0.00 in
20:11 61.0 °F 48.8 °F 29.85 in WNW 5.0 mph 8.0 mph 64% 0.00 in
20:16 60.8 °F 49.0 °F 29.86 in WNW 4.0 mph 9.0 mph 65% 0.00 in
20:21 60.5 °F 48.7 °F 29.86 in WNW 3.0 mph 7.0 mph 65% 0.00 in
20:26 60.1 °F 49.1 °F 29.86 in North 3.0 mph 6.0 mph 67% 0.00 in
20:31 59.5 °F 48.9 °F 29.86 in North 1.0 mph 3.0 mph 68% 0.00 in
20:36 59.2 °F 49.0 °F 29.86 in North 1.0 mph 2.0 mph 69% 0.00 in
20:41 58.9 °F 48.8 °F 29.87 in Calm     69% 0.00 in
20:46 58.4 °F 49.0 °F 29.87 in NNE 2.0 mph 2.0 mph 71% 0.00 in
20:51 58.2 °F 49.2 °F 29.87 in Calm   2.0 mph 72% 0.00 in
20:56 57.9 °F 49.3 °F 29.87 in Calm     73% 0.00 in
21:01 57.3 °F 49.1 °F 29.87 in Calm     74% 0.00 in
21:06 56.7 °F 48.9 °F 29.87 in Calm     75% 0.00 in
21:11 55.9 °F 48.5 °F 29.88 in Calm     76% 0.00 in
21:16 55.3 °F 48.6 °F 29.88 in Calm     78% 0.00 in
21:21 54.7 °F 48.7 °F 29.88 in Calm     80% 0.00 in
21:26 54.4 °F 48.7 °F 29.89 in Calm     81% 0.00 in
21:31 54.6 °F 48.9 °F 29.89 in Calm   1.0 mph 81% 0.00 in
21:36 54.7 °F 49.0 °F 29.89 in NNE 1.0 mph 1.0 mph 81% 0.00 in
21:41 54.7 °F 49.0 °F 29.89 in NNE 1.0 mph 1.0 mph 81% 0.00 in
21:46 54.8 °F 49.4 °F 29.89 in North 1.0 mph 3.0 mph 82% 0.00 in
21:51 54.8 °F 49.4 °F 29.90 in North 1.0 mph 2.0 mph 82% 0.00 in
21:57 54.7 °F 49.3 °F 29.90 in Calm   1.0 mph 82% 0.00 in
22:02 54.5 °F 49.5 °F 29.90 in Calm   1.0 mph 83% 0.00 in
22:07 54.2 °F 49.2 °F 29.90 in Calm     83% 0.00 in
22:12 54.1 °F 49.4 °F 29.90 in Calm     84% 0.00 in
22:17 53.9 °F 49.2 °F 29.90 in Calm     84% 0.00 in
22:22 53.6 °F 48.9 °F 29.90 in Calm     84% 0.00 in
22:27 53.1 °F 48.7 °F 29.90 in Calm     85% 0.00 in
22:32 52.8 °F 48.7 °F 29.90 in Calm     86% 0.00 in
22:37 52.8 °F 49.0 °F 29.90 in Calm     87% 0.00 in
22:42 52.6 °F 48.8 °F 29.90 in Calm     87% 0.00 in
22:47 52.3 °F 48.9 °F 29.90 in Calm     88% 0.00 in
22:52 52.6 °F 49.2 °F 29.90 in Calm     88% 0.00 in
22:57 52.8 °F 49.3 °F 29.90 in Calm     88% 0.00 in
23:02 53.0 °F 49.2 °F 29.90 in Calm   1.0 mph 87% 0.00 in
23:07 52.8 °F 49.0 °F 29.90 in Calm   1.0 mph 87% 0.00 in
23:12 52.8 °F 49.3 °F 29.90 in Calm   1.0 mph 88% 0.00 in
23:17 52.8 °F 49.3 °F 29.90 in NNW 1.0 mph 1.0 mph 88% 0.00 in
23:22 52.8 °F 49.0 °F 29.90 in Calm   1.0 mph 87% 0.00 in
23:27 52.3 °F 48.9 °F 29.90 in Calm     88% 0.00 in
23:32 52.1 °F 49.0 °F 29.91 in NNW 1.0 mph 1.0 mph 89% 0.00 in
23:38 52.1 °F 49.0 °F 29.91 in Calm     89% 0.00 in
23:43 51.9 °F 48.5 °F 29.90 in Calm     88% 0.00 in
23:48 51.4 °F 48.0 °F 29.90 in Calm     88% 0.00 in
23:53 51.2 °F 48.4 °F 29.90 in Calm     90% 0.00 in
23:59 50.9 °F 48.4 °F 29.90 in Calm     91% 0.00 in
Compliments of Weather Underground